createdAt,value
2019-01-19T00:01:04.899Z,79.60
2019-01-19T00:05:29.227Z,79.70
2019-01-19T00:07:42.283Z,79.90
2019-01-19T00:12:01.325Z,79.90
2019-01-19T00:14:34.852Z,79.90
2019-01-19T00:17:23.091Z,79.90
2019-01-19T00:21:45.137Z,79.70
2019-01-19T00:26:03.787Z,79.70
2019-01-19T00:28:16.888Z,79.90
2019-01-19T00:30:29.585Z,80.00
2019-01-19T00:33:52.407Z,79.90
2019-01-19T00:36:41.095Z,80.00
2019-01-19T00:39:27.128Z,80.20
2019-01-19T00:41:53.382Z,80.40
2019-01-19T00:44:11.626Z,80.50
2019-01-19T00:46:33.410Z,80.20
2019-01-19T00:48:48.413Z,80.10
2019-01-19T00:53:07.837Z,80.00
2019-01-19T00:57:44.977Z,80.00
2019-01-19T00:59:54.990Z,79.80
2019-01-19T01:02:28.366Z,80.00
2019-01-19T01:04:41.855Z,80.10
2019-01-19T01:09:01.732Z,80.20
2019-01-19T01:12:00.929Z,80.30
2019-01-19T01:15:23.694Z,81.00
2019-01-19T01:17:35.810Z,80.30
2019-01-19T01:19:51.277Z,80.40
2019-01-19T01:22:04.497Z,80.20
2019-01-19T01:24:25.285Z,80.00
2019-01-19T01:26:41.827Z,80.00
2019-01-19T01:29:02.874Z,79.70
2019-01-19T01:32:15.618Z,79.20
2019-01-19T01:34:29.857Z,79.40
2019-01-19T01:36:50.302Z,79.40
2019-01-19T01:39:16.786Z,79.40
2019-01-19T01:42:38.515Z,79.30
2019-01-19T01:44:54.501Z,79.40
2019-01-19T01:47:17.536Z,79.40
2019-01-19T01:50:32.902Z,79.60
2019-01-19T01:53:20.433Z,79.70
2019-01-19T01:55:32.830Z,79.80
2019-01-19T01:57:44.169Z,80.10
2019-01-19T02:00:15.165Z,80.10
2019-01-19T02:02:48.382Z,80.20
2019-01-19T02:05:06.354Z,80.20
2019-01-19T02:07:25.921Z,80.30
2019-01-19T02:10:38.157Z,80.00
2019-01-19T02:12:53.210Z,80.20
2019-01-19T02:17:09.964Z,79.70
2019-01-19T02:19:32.509Z,79.30
2019-01-19T02:22:05.802Z,79.00
2019-01-19T02:24:19.476Z,79.00
2019-01-19T02:26:36.826Z,78.90
2019-01-19T02:28:54.302Z,79.10
2019-01-19T02:31:27.290Z,79.10
2019-01-19T02:35:48.655Z,79.30
2019-01-19T02:38:15.629Z,79.30
2019-01-19T02:40:34.245Z,79.70
2019-01-19T02:43:04.079Z,79.80
2019-01-19T02:45:25.186Z,79.70
2019-01-19T02:47:44.716Z,79.80
2019-01-19T02:50:58.988Z,79.70
2019-01-19T02:53:17.158Z,79.50
2019-01-19T02:55:35.287Z,79.40
2019-01-19T02:58:17.075Z,79.10
2019-01-19T03:00:33.786Z,79.20
2019-01-19T03:02:52.126Z,79.60
2019-01-19T03:05:19.238Z,79.70
2019-01-19T03:09:44.496Z,79.80
2019-01-19T03:12:37.649Z,79.80
2019-01-19T03:14:56.118Z,79.70
2019-01-19T03:17:29.469Z,79.80
2019-01-19T03:20:20.675Z,80.00
2019-01-19T03:23:41.142Z,80.20
2019-01-19T03:26:00.799Z,79.80
2019-01-19T03:28:22.181Z,79.80
2019-01-19T03:31:24.671Z,79.70
2019-01-19T03:33:54.317Z,80.00
2019-01-19T03:36:10.498Z,79.90
2019-01-19T03:40:42.158Z,80.00
2019-01-19T03:47:05.611Z,80.10
2019-01-19T03:49:52.467Z,79.80
2019-01-19T03:52:38.326Z,80.20
2019-01-19T03:55:10.567Z,80.10
2019-01-19T03:57:26.435Z,80.30
2019-01-19T03:59:51.994Z,80.40
2019-01-19T04:02:15.499Z,80.30
2019-01-19T04:04:38.679Z,80.40
2019-01-19T04:07:09.909Z,80.20
2019-01-19T04:09:39.108Z,79.90
2019-01-19T04:12:01.225Z,79.90
2019-01-19T04:14:19.193Z,79.70
2019-01-19T04:18:49.412Z,79.60
2019-01-19T04:22:33.626Z,79.50
2019-01-19T04:24:50.878Z,79.80
2019-01-19T04:26:57.495Z,79.80
2019-01-19T04:29:01.888Z,79.90
2019-01-19T04:31:06.278Z,80.00
2019-01-19T04:33:10.688Z,80.00
2019-01-19T04:35:15.044Z,79.60
2019-01-19T04:37:19.431Z,79.60
2019-01-19T04:39:23.851Z,79.50
2019-01-19T04:41:28.285Z,79.60
2019-01-19T04:43:32.687Z,79.60
2019-01-19T04:45:37.179Z,79.60
2019-01-19T04:47:41.657Z,79.50
2019-01-19T04:49:46.163Z,79.50
2019-01-19T04:51:50.825Z,79.40
2019-01-19T04:53:55.459Z,79.60
2019-01-19T04:56:00.009Z,79.50
2019-01-19T04:58:04.802Z,79.20
2019-01-19T05:00:14.980Z,79.20
2019-01-19T05:02:19.619Z,78.90
2019-01-19T05:04:27.031Z,79.20
2019-01-19T05:06:31.394Z,79.10
2019-01-19T05:08:35.798Z,79.30
2019-01-19T05:10:40.233Z,79.30
2019-01-19T05:12:44.610Z,79.00
2019-01-19T05:14:48.963Z,78.90
2019-01-19T05:16:53.372Z,79.00
2019-01-19T05:18:57.775Z,78.80
2019-01-19T05:21:02.210Z,78.80
2019-01-19T05:23:06.602Z,78.70
2019-01-19T05:25:11.124Z,78.60
2019-01-19T05:27:15.495Z,78.50
2019-01-19T05:29:20.474Z,78.20
2019-01-19T05:31:24.912Z,78.10
2019-01-19T05:33:29.293Z,78.00
2019-01-19T05:35:33.658Z,78.10
2019-01-19T05:37:38.037Z,78.60
2019-01-19T05:39:42.452Z,78.20
2019-01-19T05:41:46.782Z,78.30
2019-01-19T05:43:51.174Z,78.30
2019-01-19T05:45:55.515Z,78.30
2019-01-19T05:47:59.983Z,78.30
2019-01-19T05:50:06.185Z,78.60
2019-01-19T05:52:10.577Z,78.10
2019-01-19T05:54:14.946Z,78.40
2019-01-19T05:56:19.289Z,78.30
2019-01-19T05:58:23.681Z,78.30
2019-01-19T06:00:33.548Z,78.60
2019-01-19T06:02:37.913Z,78.40
2019-01-19T06:04:42.333Z,78.40
2019-01-19T06:06:47.343Z,78.50
2019-01-19T06:08:51.102Z,78.50
2019-01-19T06:10:55.472Z,78.30
2019-01-19T06:12:59.861Z,78.20
2019-01-19T06:15:04.631Z,78.50
2019-01-19T06:17:09.037Z,78.30
2019-01-19T06:19:13.496Z,78.70
2019-01-19T06:21:18.005Z,78.50
2019-01-19T06:23:22.382Z,78.50
2019-01-19T06:25:26.907Z,78.50
2019-01-19T06:27:31.286Z,78.80
2019-01-19T06:29:35.694Z,78.40
2019-01-19T06:31:40.214Z,78.20
2019-01-19T06:33:44.666Z,78.30
2019-01-19T06:35:49.141Z,78.40
2019-01-19T06:37:53.487Z,78.40
2019-01-19T06:39:57.824Z,78.30
2019-01-19T06:42:02.183Z,77.90
2019-01-19T06:44:06.602Z,77.50
2019-01-19T06:46:10.956Z,77.50
2019-01-19T06:48:15.339Z,77.50
2019-01-19T06:50:19.794Z,77.50
2019-01-19T06:52:24.215Z,77.50
2019-01-19T06:54:29.247Z,77.50
2019-01-19T06:56:33.616Z,77.50
2019-01-19T06:58:38.034Z,77.50
2019-01-19T07:00:42.498Z,77.50
2019-01-19T07:02:46.914Z,77.60
2019-01-19T07:04:51.287Z,77.50
2019-01-19T07:07:02.329Z,77.80
2019-01-19T07:09:00.172Z,77.80
2019-01-19T07:11:04.581Z,77.70
2019-01-19T07:13:08.979Z,77.40
2019-01-19T07:15:14.147Z,77.40
2019-01-19T07:17:18.461Z,77.40
2019-01-19T07:19:22.842Z,77.40
2019-01-19T07:21:27.186Z,77.70
2019-01-19T07:23:31.571Z,77.70
2019-01-19T07:25:35.914Z,77.30
2019-01-19T07:27:40.264Z,77.60
2019-01-19T07:29:44.676Z,77.50
2019-01-19T07:31:49.465Z,77.80
2019-01-19T07:33:55.995Z,77.80
2019-01-19T07:36:00.749Z,77.50
2019-01-19T07:38:05.392Z,77.90
2019-01-19T07:40:11.309Z,77.20
2019-01-19T07:42:15.893Z,77.30
2019-01-19T07:44:20.330Z,77.20
2019-01-19T07:46:24.929Z,77.00
2019-01-19T07:48:29.373Z,77.10
2019-01-19T07:50:36.533Z,77.60
2019-01-19T07:52:41.081Z,77.60
2019-01-19T07:54:45.646Z,77.60
2019-01-19T07:56:50.101Z,77.90
2019-01-19T07:58:59.195Z,77.80
2019-01-19T08:01:04.084Z,77.60
2019-01-19T08:03:09.146Z,78.00
2019-01-19T08:05:14.121Z,78.10
2019-01-19T08:07:18.918Z,78.20
2019-01-19T08:09:23.293Z,78.10
2019-01-19T08:11:28.001Z,77.80
2019-01-19T08:13:32.624Z,78.00
2019-01-19T08:15:38.752Z,78.10
2019-01-19T08:17:44.531Z,78.50
2019-01-19T08:19:48.985Z,78.20
2019-01-19T08:21:53.393Z,77.90
2019-01-19T08:23:57.777Z,78.00
2019-01-19T08:26:02.109Z,78.40
2019-01-19T08:28:06.487Z,78.50
2019-01-19T08:30:18.074Z,78.50
2019-01-19T08:32:22.442Z,78.40
2019-01-19T08:34:26.808Z,77.50
2019-01-19T08:36:31.331Z,77.50
2019-01-19T08:38:35.733Z,78.10
2019-01-19T08:40:40.132Z,78.20
2019-01-19T08:42:44.554Z,78.20
2019-01-19T08:44:48.993Z,78.00
2019-01-19T08:46:53.391Z,77.90
2019-01-19T08:48:57.802Z,77.70
2019-01-19T08:51:02.195Z,78.10
2019-01-19T08:53:06.593Z,77.80
2019-01-19T08:55:11.063Z,77.80
2019-01-19T08:57:15.452Z,77.80
2019-01-19T08:59:24.471Z,77.90
2019-01-19T09:01:28.965Z,77.40
2019-01-19T09:03:33.338Z,77.00
2019-01-19T09:05:37.797Z,77.40
2019-01-19T09:07:42.262Z,77.30
2019-01-19T09:09:46.694Z,77.20
2019-01-19T09:11:53.333Z,77.60
2019-01-19T09:13:57.727Z,78.20
2019-01-19T09:16:10.685Z,77.80
2019-01-19T09:18:15.011Z,77.80
2019-01-19T09:20:19.765Z,77.70
2019-01-19T09:22:24.139Z,77.40
2019-01-19T09:24:29.826Z,77.60
2019-01-19T09:26:34.168Z,77.50
2019-01-19T09:28:38.532Z,77.70
2019-01-19T09:30:42.957Z,77.70
2019-01-19T09:32:47.418Z,78.00
2019-01-19T09:34:51.840Z,78.00
2019-01-19T09:36:56.865Z,77.90
2019-01-19T09:39:01.257Z,77.90
2019-01-19T09:41:05.803Z,77.80
2019-01-19T09:43:10.321Z,77.70
2019-01-19T09:45:14.850Z,77.50
2019-01-19T09:47:19.285Z,77.20
2019-01-19T09:49:23.729Z,77.00
2019-01-19T09:51:28.264Z,76.80
2019-01-19T09:53:32.674Z,76.60
2019-01-19T09:55:37.103Z,76.70
2019-01-19T09:57:41.571Z,76.10
2019-01-19T09:59:45.962Z,77.30
2019-01-19T10:01:50.367Z,76.50
2019-01-19T10:03:54.872Z,76.80
2019-01-19T10:05:59.327Z,76.80
2019-01-19T10:08:03.842Z,77.10
2019-01-19T10:10:09.948Z,77.30
2019-01-19T10:12:14.466Z,77.70
2019-01-19T10:14:18.943Z,77.00
2019-01-19T10:16:23.593Z,77.30
2019-01-19T10:18:28.095Z,76.30
2019-01-19T10:20:32.530Z,77.40
2019-01-19T10:22:36.985Z,76.60
2019-01-19T10:24:41.504Z,76.90
2019-01-19T10:26:45.887Z,77.70
2019-01-19T10:28:50.891Z,77.40
2019-01-19T10:30:55.306Z,77.00
2019-01-19T10:32:59.783Z,77.20
2019-01-19T10:35:05.577Z,76.80
2019-01-19T10:37:10.023Z,77.20
2019-01-19T10:39:14.558Z,76.80
2019-01-19T10:41:19.081Z,77.20
2019-01-19T10:43:23.486Z,77.30
2019-01-19T10:45:27.933Z,77.40
2019-01-19T10:47:32.291Z,77.00
2019-01-19T10:49:36.690Z,76.90
2019-01-19T10:51:41.259Z,76.60
2019-01-19T10:53:45.673Z,76.20
2019-01-19T10:55:50.059Z,76.30
2019-01-19T10:57:54.526Z,75.90
2019-01-19T10:59:58.962Z,76.20
2019-01-19T11:02:03.353Z,76.00
2019-01-19T11:04:07.797Z,75.00
2019-01-19T11:06:12.148Z,75.40
2019-01-19T11:08:16.605Z,76.00
2019-01-19T11:10:23.066Z,75.10
2019-01-19T11:12:27.444Z,74.60
2019-01-19T11:14:31.857Z,74.90
2019-01-19T11:16:36.303Z,75.40
2019-01-19T11:18:40.743Z,75.00
2019-01-19T11:20:45.144Z,75.50
2019-01-19T11:22:49.656Z,75.10
2019-01-19T11:24:54.099Z,75.20
2019-01-19T11:26:58.520Z,74.00
2019-01-19T11:29:02.882Z,72.70
2019-01-19T11:31:07.298Z,73.80
2019-01-19T11:33:12.476Z,73.50
2019-01-19T11:35:17.129Z,73.80
2019-01-19T11:37:21.651Z,73.40
2019-01-19T11:39:25.995Z,72.90
2019-01-19T11:41:30.415Z,73.70
2019-01-19T11:43:34.779Z,72.50
2019-01-19T11:45:39.541Z,70.40
2019-01-19T11:47:43.955Z,71.70
2019-01-19T11:49:48.352Z,72.40
2019-01-19T11:51:52.760Z,70.40
2019-01-19T11:53:57.237Z,71.60
2019-01-19T11:56:01.629Z,72.00
2019-01-19T11:58:06.795Z,72.00
2019-01-19T12:00:14.758Z,72.90
2019-01-19T12:02:19.247Z,71.90
2019-01-19T12:04:23.633Z,71.70
2019-01-19T12:06:28.058Z,72.00
2019-01-19T12:08:32.473Z,70.00
2019-01-19T12:10:36.943Z,72.20
2019-01-19T12:12:41.334Z,72.70
2019-01-19T12:14:45.781Z,73.40
2019-01-19T12:16:50.178Z,72.70
2019-01-19T12:18:54.618Z,72.10
2019-01-19T12:20:59.082Z,71.20
2019-01-19T12:23:03.534Z,71.70
2019-01-19T12:25:10.450Z,71.50
2019-01-19T12:27:14.950Z,70.00
2019-01-19T12:29:19.419Z,72.30
2019-01-19T12:31:24.428Z,72.00
2019-01-19T12:33:28.952Z,70.90
2019-01-19T12:35:33.508Z,72.20
2019-01-19T12:37:37.923Z,70.80
2019-01-19T12:39:42.559Z,71.00
2019-01-19T12:41:46.958Z,71.40
2019-01-19T12:43:51.418Z,70.50
2019-01-19T12:45:59.836Z,71.20
2019-01-19T12:48:04.303Z,70.00
2019-01-19T12:50:14.641Z,69.50
2019-01-19T12:52:19.078Z,68.60
2019-01-19T12:54:23.535Z,68.00
2019-01-19T12:56:27.953Z,67.50
2019-01-19T12:58:33.363Z,69.30
2019-01-19T13:00:37.769Z,70.20
2019-01-19T13:02:42.185Z,69.00
2019-01-19T13:04:46.669Z,67.20
2019-01-19T13:06:58.442Z,70.10
2019-01-19T13:09:12.436Z,68.70
2019-01-19T13:11:25.618Z,68.90
2019-01-19T13:13:36.063Z,68.70
2019-01-19T13:17:59.308Z,70.10
2019-01-19T13:20:28.049Z,70.10
2019-01-19T13:23:45.322Z,69.00
2019-01-19T13:28:06.126Z,67.00
2019-01-19T13:30:24.163Z,66.30
2019-01-19T13:32:40.102Z,66.40
2019-01-19T13:35:02.440Z,67.30
2019-01-19T13:39:22.379Z,66.40
2019-01-19T13:41:36.615Z,67.80
2019-01-19T13:44:00.840Z,66.90
2019-01-19T13:46:18.784Z,66.20
2019-01-19T13:50:39.386Z,64.50
2019-01-19T13:55:01.587Z,65.30
2019-01-19T13:57:19.361Z,65.90
2019-01-19T13:59:30.563Z,66.00
2019-01-19T14:02:49.810Z,66.10
2019-01-19T14:05:09.726Z,64.70
2019-01-19T14:08:13.777Z,67.50
2019-01-19T14:10:59.763Z,64.70
2019-01-19T14:13:46.739Z,64.70
2019-01-19T14:16:19.669Z,67.70
2019-01-19T14:18:41.370Z,66.70
2019-01-19T14:21:05.698Z,68.30
2019-01-19T14:23:20.210Z,67.60
2019-01-19T14:27:54.897Z,65.30
2019-01-19T14:30:13.091Z,67.20
2019-01-19T14:32:34.463Z,65.50
2019-01-19T14:34:56.717Z,64.40
2019-01-19T14:37:23.892Z,65.80
2019-01-19T14:39:41.418Z,64.80
2019-01-19T14:43:58.605Z,66.90
2019-01-19T14:46:19.187Z,66.50
2019-01-19T14:48:50.552Z,64.80
2019-01-19T14:51:11.031Z,64.20
2019-01-19T14:56:04.505Z,64.50
2019-01-19T14:58:24.490Z,65.40
2019-01-19T15:00:49.383Z,65.80
2019-01-19T15:03:03.336Z,64.90
2019-01-19T15:05:16.582Z,66.50
2019-01-19T15:07:45.239Z,66.80
2019-01-19T15:10:16.859Z,66.40
2019-01-19T15:12:34.774Z,67.30
2019-01-19T15:14:51.018Z,66.80
2019-01-19T15:17:10.345Z,67.90
2019-01-19T15:19:39.686Z,66.30
2019-01-19T15:21:54.287Z,67.00
2019-01-19T15:24:08.271Z,67.80
2019-01-19T15:26:27.456Z,67.20
2019-01-19T15:29:19.296Z,67.90
2019-01-19T15:31:35.051Z,65.90
2019-01-19T15:34:20.769Z,68.20
2019-01-19T15:37:52.437Z,67.00
2019-01-19T15:40:16.394Z,68.20
2019-01-19T15:42:32.724Z,68.80
2019-01-19T15:45:24.344Z,68.70
2019-01-19T15:47:42.768Z,68.20
2019-01-19T15:50:09.345Z,69.00
2019-01-19T15:52:52.765Z,68.70
2019-01-19T15:55:15.996Z,68.70
2019-01-19T15:57:35.710Z,68.80
2019-01-19T16:00:03.853Z,68.80
2019-01-19T16:02:19.283Z,68.80
2019-01-19T16:06:35.901Z,68.60
2019-01-19T16:09:20.782Z,68.90
2019-01-19T16:11:42.765Z,69.30
2019-01-19T16:16:08.638Z,69.90
2019-01-19T16:18:30.298Z,69.30
2019-01-19T16:20:55.288Z,69.70
2019-01-19T16:24:09.108Z,70.10
2019-01-19T16:27:26.839Z,69.00
2019-01-19T16:29:41.504Z,69.70
2019-01-19T16:33:58.805Z,69.70
2019-01-19T16:36:20.288Z,70.00
2019-01-19T16:39:11.241Z,70.20
2019-01-19T16:41:42.217Z,70.70
2019-01-19T16:44:14.009Z,70.90
2019-01-19T16:47:43.255Z,70.80
2019-01-19T16:49:59.789Z,70.60
2019-01-19T16:53:16.100Z,70.70
2019-01-19T16:56:05.533Z,70.90
2019-01-19T16:58:33.737Z,71.00
2019-01-19T17:00:49.332Z,71.30
2019-01-19T17:04:06.061Z,71.30
2019-01-19T17:06:28.226Z,71.60
2019-01-19T17:08:48.290Z,71.50
2019-01-19T17:11:07.670Z,71.60
2019-01-19T17:13:57.022Z,71.70
2019-01-19T17:16:18.763Z,72.00
2019-01-19T17:18:39.766Z,72.40
2019-01-19T17:23:01.892Z,72.20
2019-01-19T17:25:24.830Z,72.10
2019-01-19T17:27:38.992Z,71.90
2019-01-19T17:31:58.697Z,71.80
2019-01-19T17:34:11.731Z,72.10
2019-01-19T17:36:29.401Z,72.00
2019-01-19T17:40:47.281Z,72.10
2019-01-19T17:43:07.378Z,72.10
2019-01-19T17:45:26.406Z,71.70
2019-01-19T17:47:38.493Z,71.70
2019-01-19T17:52:00.897Z,72.10
2019-01-19T17:54:28.840Z,72.60
2019-01-19T17:56:40.899Z,72.50
2019-01-19T17:58:56.210Z,72.60
2019-01-19T18:01:46.830Z,72.50
2019-01-19T18:06:11.513Z,72.40
2019-01-19T18:09:01.139Z,72.20
2019-01-19T18:12:21.229Z,72.20
2019-01-19T18:14:37.179Z,72.40
2019-01-19T18:16:54.167Z,72.40
2019-01-19T18:19:11.450Z,72.70
2019-01-19T18:21:31.304Z,72.90
2019-01-19T18:23:47.600Z,73.80
2019-01-19T18:26:22.410Z,72.90
2019-01-19T18:28:53.894Z,72.90
2019-01-19T18:32:12.267Z,72.30
2019-01-19T18:35:34.455Z,72.40
2019-01-19T18:37:54.001Z,72.00
2019-01-19T18:42:14.610Z,72.30
2019-01-19T18:44:39.972Z,72.80
2019-01-19T18:49:04.005Z,72.80
2019-01-19T18:53:24.731Z,73.10
2019-01-19T18:59:43.804Z,73.00
2019-01-19T19:02:34.278Z,73.00
2019-01-19T19:06:54.439Z,73.30
2019-01-19T19:09:15.359Z,73.00
2019-01-19T19:11:50.395Z,72.90
2019-01-19T19:14:06.595Z,72.90
2019-01-19T19:16:21.182Z,72.80
2019-01-19T19:18:39.459Z,72.50
2019-01-19T19:20:59.215Z,72.50
2019-01-19T19:23:17.814Z,72.70
2019-01-19T19:25:47.263Z,73.00
2019-01-19T19:30:07.619Z,72.80
2019-01-19T19:32:24.591Z,72.70
2019-01-19T19:36:44.589Z,72.70
2019-01-19T19:38:59.787Z,72.80
2019-01-19T19:41:17.822Z,72.90
2019-01-19T19:43:31.548Z,73.00
2019-01-19T19:45:51.167Z,73.40
2019-01-19T19:48:06.651Z,73.50
2019-01-19T19:50:31.758Z,73.40
2019-01-19T19:52:36.338Z,74.10
2019-01-19T19:54:44.782Z,73.70
2019-01-19T19:56:47.906Z,73.60
2019-01-19T19:58:52.316Z,73.60
2019-01-19T20:00:56.779Z,73.60
2019-01-19T20:03:01.249Z,73.50
2019-01-19T20:05:06.545Z,73.50
2019-01-19T20:07:11.107Z,73.40
2019-01-19T20:09:15.704Z,73.20
2019-01-19T20:11:20.194Z,73.10
2019-01-19T20:13:24.716Z,73.00
2019-01-19T20:15:29.233Z,73.00
2019-01-19T20:17:33.680Z,72.80
2019-01-19T20:19:38.250Z,72.70
2019-01-19T20:21:42.825Z,72.70
2019-01-19T20:23:47.317Z,72.40
2019-01-19T20:25:51.770Z,72.90
2019-01-19T20:27:57.825Z,72.10
2019-01-19T20:30:02.283Z,71.90
2019-01-19T20:32:06.754Z,72.10
2019-01-19T20:34:11.172Z,72.50
2019-01-19T20:36:15.657Z,72.60
2019-01-19T20:38:20.123Z,72.60
2019-01-19T20:40:24.804Z,72.60
2019-01-19T20:42:29.129Z,72.40
2019-01-19T20:44:33.541Z,72.60
2019-01-19T20:46:38.203Z,72.60
2019-01-19T20:48:42.802Z,72.50
2019-01-19T20:50:47.263Z,72.70
2019-01-19T20:52:51.713Z,72.50
2019-01-19T20:54:56.179Z,72.20
2019-01-19T20:57:00.561Z,72.50
2019-01-19T20:59:05.038Z,72.20
2019-01-19T21:01:09.614Z,72.60
2019-01-19T21:03:14.061Z,72.50
2019-01-19T21:05:18.542Z,72.40
2019-01-19T21:07:23.041Z,72.40
2019-01-19T21:09:27.526Z,72.30
2019-01-19T21:11:33.691Z,72.30
2019-01-19T21:13:38.360Z,72.10
2019-01-19T21:15:42.858Z,72.20
2019-01-19T21:17:47.441Z,72.20
2019-01-19T21:19:51.872Z,72.30
2019-01-19T21:21:56.373Z,72.50
2019-01-19T21:24:00.795Z,72.50
2019-01-19T21:26:05.540Z,72.50
2019-01-19T21:28:10.027Z,72.60
2019-01-19T21:30:14.891Z,72.60
2019-01-19T21:32:19.359Z,72.80
2019-01-19T21:34:23.830Z,72.70
2019-01-19T21:36:28.330Z,72.80
2019-01-19T21:38:32.840Z,72.50
2019-01-19T21:40:39.171Z,72.40
2019-01-19T21:42:42.202Z,72.40
2019-01-19T21:44:46.711Z,72.70
2019-01-19T21:46:51.234Z,72.70
2019-01-19T21:48:56.214Z,73.10
2019-01-19T21:51:00.238Z,72.70
2019-01-19T21:53:04.816Z,72.80
2019-01-19T21:55:09.387Z,73.10
2019-01-19T21:57:13.838Z,73.10
2019-01-19T21:59:18.280Z,73.20
2019-01-19T22:01:22.667Z,73.00
2019-01-19T22:03:27.717Z,72.80
2019-01-19T22:05:32.217Z,72.90
2019-01-19T22:07:36.609Z,72.80
2019-01-19T22:09:41.052Z,72.70
2019-01-19T22:11:45.622Z,73.00
2019-01-19T22:13:50.107Z,73.30
2019-01-19T22:15:54.600Z,73.30
2019-01-19T22:17:59.074Z,73.70
2019-01-19T22:20:03.609Z,73.30
2019-01-19T22:22:08.067Z,73.20
2019-01-19T22:24:12.606Z,73.00
2019-01-19T22:26:19.030Z,72.70
2019-01-19T22:28:23.467Z,72.50
2019-01-19T22:30:27.975Z,72.30
2019-01-19T22:32:32.413Z,72.20
2019-01-19T22:34:36.866Z,73.20
2019-01-19T22:36:41.412Z,72.90
2019-01-19T22:38:46.907Z,72.70
2019-01-19T22:40:53.727Z,72.60
2019-01-19T22:42:58.688Z,72.80
2019-01-19T22:45:03.100Z,72.60
2019-01-19T22:47:07.571Z,72.70
2019-01-19T22:49:12.056Z,72.80
2019-01-19T22:51:16.471Z,72.90
2019-01-19T22:53:20.863Z,72.60
2019-01-19T22:55:25.306Z,71.80
2019-01-19T22:57:29.678Z,71.80
2019-01-19T22:59:34.085Z,71.50
2019-01-19T23:01:48.494Z,71.70
2019-01-19T23:03:52.962Z,71.60
2019-01-19T23:05:57.378Z,71.60
2019-01-19T23:08:01.781Z,71.60
2019-01-19T23:10:06.753Z,71.80
2019-01-19T23:12:11.180Z,72.00
2019-01-19T23:14:15.803Z,72.20
2019-01-19T23:16:20.202Z,72.50
2019-01-19T23:18:24.559Z,72.70
2019-01-19T23:20:29.016Z,72.40
2019-01-19T23:22:33.446Z,72.20
2019-01-19T23:24:37.846Z,72.40
2019-01-19T23:26:42.294Z,72.40
2019-01-19T23:28:46.652Z,72.40
2019-01-19T23:30:55.433Z,72.60
2019-01-19T23:33:01.211Z,72.60
2019-01-19T23:35:05.258Z,72.60
2019-01-19T23:37:09.671Z,72.90
2019-01-19T23:39:14.149Z,72.70
2019-01-19T23:41:18.538Z,72.90
2019-01-19T23:43:22.982Z,73.00
2019-01-19T23:45:27.350Z,73.00
2019-01-19T23:47:31.735Z,73.00
2019-01-19T23:49:36.161Z,73.00
2019-01-19T23:51:40.550Z,72.60
2019-01-19T23:53:44.982Z,72.50
2019-01-19T23:55:49.355Z,72.30
2019-01-19T23:57:53.759Z,72.40
2019-01-19T23:59:58.284Z,72.30
